Leonardo — IAZA — position and weather

sailwx.info

Track history (hours):
 
Tides and Currents Weather Stations Pressure Air Temp Water Temp Dewpoint Dewpoint Depression Visibility Wind Speed Wind Dir Waves Ship Positions

Leonardo

Last reported at 2014-Jul-23 21:33 UTC. Time now 2014-Jul-23 21:43 UTC.
Position N 44°06' E 009°49'.

Length 28 m; draft 2.7 m.

MMSI: 247155800.

Date/timePositionNaut miles runAvg speedWind from/ knotsBaromVisibWave heightAir tempDewpointWater temp
2014-Jul-23 21:33N 44°06' E 009°49'0 0.0
2014-Jul-23 20:33N 44°06' E 009°49'0 0.0
2014-Jul-23 19:33N 44°06' E 009°49'0 0.0
2014-Jul-23 18:32N 44°06' E 009°49'0 0.0
2014-Jul-23 17:32N 44°06' E 009°49'0 0.0
2014-Jul-23 16:31N 44°06' E 009°49'0 0.0
2014-Jul-23 15:28N 44°06' E 009°49'0 0.0
2014-Jul-23 14:24N 44°06' E 009°49'0 0.0
2014-Jul-23 13:33N 44°06' E 009°49'0 0.0
2014-Jul-23 12:32N 44°06' E 009°49'0 0.0
2014-Jul-23 11:32N 44°06' E 009°49'1 0.9
2014-Jul-23 10:33N 44°05' E 009°51'1 0.7
2014-Jul-23 09:33N 44°06' E 009°51'0 0.0
2014-Jul-23 08:33N 44°05' E 009°51'0 0.2
2014-Jul-23 07:33N 44°06' E 009°52'0 0.0
2014-Jul-23 06:33N 44°06' E 009°52'1 1.1
2014-Jul-23 05:33N 44°05' E 009°50'1 0.5
2014-Jul-23 04:33N 44°06' E 009°49'0 0.0
2014-Jul-23 03:33N 44°06' E 009°49'0 0.0
2014-Jul-23 02:33N 44°06' E 009°49'0 0.0
2014-Jul-23 01:33N 44°06' E 009°49'0 0.0
2014-Jul-23 00:33N 44°06' E 009°49'0 0.0
2014-Jul-22 23:33N 44°06' E 009°49'0 0.0
2014-Jul-22 22:33N 44°06' E 009°49'0 0.0
2014-Jul-22 21:33N 44°06' E 009°49'0 0.0
2014-Jul-22 20:33N 44°06' E 009°49'0 0.0
2014-Jul-22 19:33N 44°06' E 009°49'0 0.0
2014-Jul-22 18:33N 44°06' E 009°49'0 0.0
2014-Jul-22 17:33N 44°06' E 009°49'0 0.0
2014-Jul-22 16:33N 44°06' E 009°49'2 1.5
2014-Jul-22 15:33N 44°06' E 009°52'0 0.2
2014-Jul-22 14:33N 44°06' E 009°51'0 0.1
2014-Jul-22 13:33N 44°06' E 009°52'0 0.0
2014-Jul-22 12:33N 44°06' E 009°52'0 0.1
2014-Jul-22 11:33N 44°05' E 009°51'0 0.0
2014-Jul-22 10:33N 44°05' E 009°51'0 0.0
2014-Jul-22 09:33N 44°05' E 009°51'0 0.2
2014-Jul-22 08:33N 44°06' E 009°52'0 0.0
2014-Jul-22 07:33N 44°06' E 009°52'0 0.2
2014-Jul-22 06:33N 44°06' E 009°52'1 1.1
2014-Jul-22 05:33N 44°05' E 009°50'1 0.8
2014-Jul-22 04:33N 44°06' E 009°49'0 0.0
2014-Jul-22 03:33N 44°06' E 009°49'0 0.0
2014-Jul-22 02:33N 44°06' E 009°49'0 0.0
2014-Jul-22 01:33N 44°06' E 009°49'0 0.0
2014-Jul-22 00:33N 44°06' E 009°49'0 0.0
2014-Jul-21 23:33N 44°06' E 009°49'0 0.0
2014-Jul-21 22:33N 44°06' E 009°49'0 0.0
2014-Jul-21 21:33N 44°06' E 009°49'0 0.0
2014-Jul-21 20:33N 44°06' E 009°49'0 0.0
2014-Jul-21 20:18N 44°06' E 009°49'0 0.0
2014-Jul-21 19:33N 44°06' E 009°49'0 0.0
2014-Jul-21 18:33N 44°06' E 009°49'0 0.0
2014-Jul-21 17:33N 44°06' E 009°49'0 0.0
2014-Jul-21 16:33N 44°06' E 009°49'0 0.0
2014-Jul-21 15:33N 44°06' E 009°49'0 0.0
2014-Jul-21 14:33N 44°06' E 009°49'0 0.0
2014-Jul-21 13:33N 44°06' E 009°49'0 0.0
2014-Jul-21 12:33N 44°06' E 009°49'0 0.0
2014-Jul-21 11:33N 44°06' E 009°49'0 0.0
2014-Jul-21 10:33N 44°06' E 009°49'0 0.0
2014-Jul-21 09:33N 44°06' E 009°49'0 0.0
2014-Jul-21 08:33N 44°06' E 009°49'0 0.0
2014-Jul-21 07:33N 44°06' E 009°49'0 0.0
2014-Jul-21 06:33N 44°06' E 009°49'0 0.0
2014-Jul-21 05:33N 44°06' E 009°49'0 0.0
2014-Jul-21 04:33N 44°06' E 009°49'0 0.0
2014-Jul-21 03:33N 44°06' E 009°49'0 0.0
2014-Jul-21 02:33N 44°06' E 009°49'0 0.0
2014-Jul-21 01:33N 44°06' E 009°49'0 0.0
2014-Jul-21 00:33N 44°06' E 009°49'0 0.0
2014-Jul-20 23:33N 44°06' E 009°49'0 0.0
2014-Jul-20 22:33N 44°06' E 009°49'0 0.0
2014-Jul-20 21:33N 44°06' E 009°49'0 0.0
2014-Jul-20 20:33N 44°06' E 009°49'0 0.0
2014-Jul-20 19:33N 44°06' E 009°49'0 0.0
2014-Jul-20 18:33N 44°06' E 009°49'0 0.0
2014-Jul-20 17:33N 44°06' E 009°49'0 0.0
2014-Jul-20 16:33N 44°06' E 009°49'0 0.0
2014-Jul-20 15:33N 44°06' E 009°49'0 0.0
2014-Jul-20 14:33N 44°06' E 009°49'0 0.0
2014-Jul-20 13:33N 44°06' E 009°49'0 0.0
2014-Jul-20 12:33N 44°06' E 009°49'0 0.0
2014-Jul-20 11:33N 44°06' E 009°49'0 0.0
2014-Jul-20 10:33N 44°06' E 009°49'0 0.0
2014-Jul-20 09:33N 44°06' E 009°49'0 0.0
2014-Jul-20 08:33N 44°06' E 009°49'0 0.0
2014-Jul-20 07:33N 44°06' E 009°49'0 0.0
2014-Jul-20 06:33N 44°06' E 009°49'0 0.0
2014-Jul-20 05:33N 44°06' E 009°49'0 0.0
2014-Jul-20 04:33N 44°06' E 009°49'0 0.0
2014-Jul-20 03:33N 44°06' E 009°49'0 0.0
2014-Jul-20 02:33N 44°06' E 009°49'0 0.0
2014-Jul-20 01:33N 44°06' E 009°49'0 0.0
2014-Jul-20 00:33N 44°06' E 009°49'0 0.0
2014-Jul-19 23:33N 44°06' E 009°49'0 0.0
2014-Jul-19 22:33N 44°06' E 009°49'0 0.0
2014-Jul-19 21:34N 44°06' E 009°49'0 0.0
2014-Jul-19 20:33N 44°06' E 009°49'0 0.0
2014-Jul-19 19:33N 44°06' E 009°49'0 0.0
2014-Jul-19 18:33N 44°06' E 009°49'0 0.0
2014-Jul-19 17:33N 44°06' E 009°49'0 0.0
2014-Jul-19 16:33N 44°06' E 009°49'0 0.0
2014-Jul-19 15:33N 44°06' E 009°49'0 0.0
2014-Jul-19 14:33N 44°06' E 009°49'0 0.0
2014-Jul-19 13:34N 44°06' E 009°49'0 0.0
2014-Jul-19 12:34N 44°06' E 009°49'0 0.0
2014-Jul-19 11:33N 44°06' E 009°49'0 0.0
2014-Jul-19 10:33N 44°06' E 009°49'0 0.0
2014-Jul-19 09:33N 44°06' E 009°49'0 0.0
2014-Jul-19 08:33N 44°06' E 009°49'0 0.0
2014-Jul-19 07:33N 44°06' E 009°49'0 0.0
2014-Jul-19 06:33N 44°06' E 009°49'0 0.1
2014-Jul-19 05:32N 44°06' E 009°49'0 0.0
2014-Jul-19 04:32N 44°06' E 009°49'0 0.0
2014-Jul-19 03:32N 44°06' E 009°49'0 0.0
2014-Jul-19 02:31N 44°06' E 009°49'0 0.0
2014-Jul-19 01:31N 44°06' E 009°49'0 0.0
2014-Jul-19 00:33N 44°06' E 009°49'0 0.0
2014-Jul-18 23:30N 44°06' E 009°49'0 0.0
2014-Jul-18 22:32N 44°06' E 009°49'0 0.0
2014-Jul-18 21:32N 44°06' E 009°49'0 0.0
2014-Jul-18 20:32N 44°06' E 009°49'0 0.0
2014-Jul-18 19:31N 44°06' E 009°49'0 0.0
2014-Jul-18 18:28N 44°06' E 009°49'0 0.0
2014-Jul-18 17:33N 44°06' E 009°49'0 0.0
2014-Jul-18 16:33N 44°06' E 009°49'0 0.0
2014-Jul-18 15:32N 44°06' E 009°49'0 0.0
2014-Jul-18 14:32N 44°06' E 009°49'0 0.0
2014-Jul-18 13:31N 44°06' E 009°49'0 0.0
2014-Jul-18 12:31N 44°06' E 009°49'0 0.0
2014-Jul-18 11:28N 44°06' E 009°49'0 0.0
2014-Jul-18 10:30N 44°06' E 009°49'0 0.0
2014-Jul-18 09:33N 44°06' E 009°49'0 0.0
2014-Jul-18 08:32N 44°06' E 009°49'0 0.0
2014-Jul-18 07:32N 44°06' E 009°49'0 0.0
2014-Jul-18 06:31N 44°06' E 009°49'0 0.0
2014-Jul-18 05:31N 44°06' E 009°49'0 0.0
2014-Jul-18 04:31N 44°06' E 009°49'0 0.0
2014-Jul-18 03:33N 44°06' E 009°49'0 0.0
2014-Jul-18 02:33N 44°06' E 009°49'0 0.0
2014-Jul-18 01:32N 44°06' E 009°49'0 0.0
2014-Jul-18 00:32N 44°06' E 009°49'0 0.0
2014-Jul-17 23:28N 44°06' E 009°49'0 0.0
2014-Jul-17 22:28N 44°06' E 009°49'0 0.0
2014-Jul-17 21:31N 44°06' E 009°49'0 0.0
2014-Jul-17 20:33N 44°06' E 009°49'0 0.0
2014-Jul-17 19:33N 44°06' E 009°49'0 0.0
2014-Jul-17 18:32N 44°06' E 009°49'0 0.0
2014-Jul-17 17:32N 44°06' E 009°49'0 0.0
2014-Jul-17 16:28N 44°06' E 009°49'0 0.0
2014-Jul-17 15:31N 44°06' E 009°49'0 0.0
2014-Jul-17 14:34N 44°06' E 009°49'0 0.0
2014-Jul-17 13:33N 44°06' E 009°49'0 0.0
2014-Jul-17 12:33N 44°06' E 009°49'0 0.0
2014-Jul-17 11:32N 44°06' E 009°49'0 0.0
2014-Jul-17 10:32N 44°06' E 009°49'0 0.0
2014-Jul-17 09:31N 44°06' E 009°49'0 0.0
2014-Jul-17 08:31N 44°06' E 009°49'0 0.0
2014-Jul-17 07:33N 44°06' E 009°49'0 0.0
2014-Jul-17 06:33N 44°06' E 009°49'0 0.0
2014-Jul-17 05:33N 44°06' E 009°49'0 0.0
2014-Jul-17 04:32N 44°06' E 009°49'0 0.0
2014-Jul-17 03:32N 44°06' E 009°49'0 0.0
2014-Jul-17 02:31N 44°06' E 009°49'0 0.0
2014-Jul-17 01:31N 44°06' E 009°49'0 0.0
2014-Jul-17 00:33N 44°06' E 009°49'0 0.0
2014-Jul-16 23:33N 44°06' E 009°49'0 0.0
2014-Jul-16 22:33N 44°06' E 009°49'0 0.0
2014-Jul-16 21:32N 44°06' E 009°49'0 0.0
2014-Jul-16 20:29N 44°06' E 009°49'0 0.0
2014-Jul-16 19:28N 44°06' E 009°49'0 0.0
2014-Jul-16 18:31N 44°06' E 009°49'1 0.6
2014-Jul-16 17:34N 44°05' E 009°50'1 1.3
2014-Jul-16 16:33N 44°06' E 009°52'4 4.1
2014-Jul-16 15:33N 44°02' E 009°52'8 7.9
2014-Jul-16 14:33N 43°54' E 009°49'0 0.5
2014-Jul-16 13:33N 43°54' E 009°49'2 1.6
2014-Jul-16 12:33N 43°54' E 009°47'0 0.2
2014-Jul-16 11:33N 43°54' E 009°47'1 1.4
2014-Jul-16 10:33N 43°54' E 009°49'1 0.5
2014-Jul-16 09:33N 43°54' E 009°49'0 0.0
2014-Jul-16 08:34N 43°54' E 009°49'0 0.4
2014-Jul-16 07:34N 43°54' E 009°49'9 8.7
2014-Jul-16 06:33N 44°03' E 009°52'4 3.5
2014-Jul-16 05:34N 44°06' E 009°49'0 0.0
2014-Jul-16 04:33N 44°06' E 009°49'0 0.0
2014-Jul-16 03:33N 44°06' E 009°49'0 0.0
2014-Jul-16 02:34N 44°06' E 009°49'0 0.0
2014-Jul-16 01:33N 44°06' E 009°49'0 0.0
2014-Jul-16 00:34N 44°06' E 009°49'0 0.0
2014-Jul-15 23:33N 44°06' E 009°49'0 0.0
2014-Jul-15 22:33N 44°06' E 009°49'0 0.0
2014-Jul-15 21:33N 44°06' E 009°49'0 0.0
2014-Jul-15 20:34N 44°06' E 009°49'0 0.0
2014-Jul-15 19:33N 44°06' E 009°49'0 0.0
2014-Jul-15 18:33N 44°06' E 009°49'0 0.0
2014-Jul-15 17:33N 44°06' E 009°49'0 0.0
2014-Jul-15 16:33N 44°06' E 009°49'0 0.1
2014-Jul-15 15:34N 44°06' E 009°49'0 0.0
2014-Jul-15 14:33N 44°06' E 009°49'0 0.0
2014-Jul-15 13:34N 44°06' E 009°49'0 0.0
2014-Jul-15 12:33N 44°06' E 009°49'0 0.0
2014-Jul-15 11:33N 44°06' E 009°49'0 0.0
2014-Jul-15 10:33N 44°06' E 009°49'1 1.2
2014-Jul-15 09:33N 44°05' E 009°51'1 0.6
2014-Jul-15 08:34N 44°06' E 009°52'0 0.0
2014-Jul-15 07:33N 44°06' E 009°52'1 0.9
2014-Jul-15 06:33N 44°05' E 009°51'1 1.0
2014-Jul-15 05:32N 44°06' E 009°49'0 0.0
2014-Jul-15 04:31N 44°06' E 009°49'0 0.0
2014-Jul-15 03:31N 44°06' E 009°49'0 0.0
2014-Jul-15 02:31N 44°06' E 009°49'0 0.0
2014-Jul-15 01:33N 44°06' E 009°49'0 0.0
2014-Jul-15 00:33N 44°06' E 009°49'0 0.0
2014-Jul-14 23:32N 44°06' E 009°49'0 0.0
2014-Jul-14 22:32N 44°06' E 009°49'0 0.0
2014-Jul-14 21:31N 44°06' E 009°49'0 0.0
2014-Jul-14 20:31N 44°06' E 009°49'0 0.0
2014-Jul-14 19:33N 44°06' E 009°49'0 0.0
2014-Jul-14 18:33N 44°06' E 009°49'0 0.0
2014-Jul-14 17:33N 44°06' E 009°49'0 0.0
2014-Jul-14 16:32N 44°06' E 009°49'0 0.0
2014-Jul-14 05:09N 44°06' E 009°49'0 0.0
2014-Jul-14 04:33N 44°06' E 009°49'0 0.0
2014-Jul-14 03:33N 44°06' E 009°49'0 0.0
2014-Jul-14 02:29N 44°06' E 009°49'0 0.0
2014-Jul-14 01:32N 44°06' E 009°49'0 0.0
2014-Jul-14 00:31N 44°06' E 009°49'0 0.0
2014-Jul-13 23:31N 44°06' E 009°49'0 0.0
2014-Jul-13 22:33N 44°06' E 009°49'  
Track history (hours):
 
Tides and Currents Weather Stations Pressure Air Temp Water Temp Dewpoint Dewpoint Depression Visibility Wind Speed Wind Dir Waves Ship Positions

Leonardo

Last reported at 2014-Jul-23 21:33 UTC. Time now 2014-Jul-23 21:43 UTC.
Position N 44°06' E 009°49'.

Length 28 m; draft 2.7 m.

MMSI: 247155800.

Date/timePositionNaut miles runAvg speedWind from/ knotsBaromVisibWave heightAir tempDewpointWater temp
2014-Jul-23 21:33N 44°06' E 009°49'0 0.0
2014-Jul-23 20:33N 44°06' E 009°49'0 0.0
2014-Jul-23 19:33N 44°06' E 009°49'0 0.0
2014-Jul-23 18:32N 44°06' E 009°49'0 0.0
2014-Jul-23 17:32N 44°06' E 009°49'0 0.0
2014-Jul-23 16:31N 44°06' E 009°49'0 0.0
2014-Jul-23 15:28N 44°06' E 009°49'0 0.0
2014-Jul-23 14:24N 44°06' E 009°49'0 0.0
2014-Jul-23 13:33N 44°06' E 009°49'0 0.0
2014-Jul-23 12:32N 44°06' E 009°49'0 0.0
2014-Jul-23 11:32N 44°06' E 009°49'1 0.9
2014-Jul-23 10:33N 44°05' E 009°51'1 0.7
2014-Jul-23 09:33N 44°06' E 009°51'0 0.0
2014-Jul-23 08:33N 44°05' E 009°51'0 0.2
2014-Jul-23 07:33N 44°06' E 009°52'0 0.0
2014-Jul-23 06:33N 44°06' E 009°52'1 1.1
2014-Jul-23 05:33N 44°05' E 009°50'1 0.5
2014-Jul-23 04:33N 44°06' E 009°49'0 0.0
2014-Jul-23 03:33N 44°06' E 009°49'0 0.0
2014-Jul-23 02:33N 44°06' E 009°49'0 0.0
2014-Jul-23 01:33N 44°06' E 009°49'0 0.0
2014-Jul-23 00:33N 44°06' E 009°49'0 0.0
2014-Jul-22 23:33N 44°06' E 009°49'0 0.0
2014-Jul-22 22:33N 44°06' E 009°49'0 0.0
2014-Jul-22 21:33N 44°06' E 009°49'0 0.0
2014-Jul-22 20:33N 44°06' E 009°49'0 0.0
2014-Jul-22 19:33N 44°06' E 009°49'0 0.0
2014-Jul-22 18:33N 44°06' E 009°49'0 0.0
2014-Jul-22 17:33N 44°06' E 009°49'0 0.0
2014-Jul-22 16:33N 44°06' E 009°49'2 1.5
2014-Jul-22 15:33N 44°06' E 009°52'0 0.2
2014-Jul-22 14:33N 44°06' E 009°51'0 0.1
2014-Jul-22 13:33N 44°06' E 009°52'0 0.0
2014-Jul-22 12:33N 44°06' E 009°52'0 0.1
2014-Jul-22 11:33N 44°05' E 009°51'0 0.0
2014-Jul-22 10:33N 44°05' E 009°51'0 0.0
2014-Jul-22 09:33N 44°05' E 009°51'0 0.2
2014-Jul-22 08:33N 44°06' E 009°52'0 0.0
2014-Jul-22 07:33N 44°06' E 009°52'0 0.2
2014-Jul-22 06:33N 44°06' E 009°52'1 1.1
2014-Jul-22 05:33N 44°05' E 009°50'1 0.8
2014-Jul-22 04:33N 44°06' E 009°49'0 0.0
2014-Jul-22 03:33N 44°06' E 009°49'0 0.0
2014-Jul-22 02:33N 44°06' E 009°49'0 0.0
2014-Jul-22 01:33N 44°06' E 009°49'0 0.0
2014-Jul-22 00:33N 44°06' E 009°49'0 0.0
2014-Jul-21 23:33N 44°06' E 009°49'0 0.0
2014-Jul-21 22:33N 44°06' E 009°49'0 0.0
2014-Jul-21 21:33N 44°06' E 009°49'0 0.0
2014-Jul-21 20:33N 44°06' E 009°49'0 0.0
2014-Jul-21 20:18N 44°06' E 009°49'0 0.0
2014-Jul-21 19:33N 44°06' E 009°49'0 0.0
2014-Jul-21 18:33N 44°06' E 009°49'0 0.0
2014-Jul-21 17:33N 44°06' E 009°49'0 0.0
2014-Jul-21 16:33N 44°06' E 009°49'0 0.0
2014-Jul-21 15:33N 44°06' E 009°49'0 0.0
2014-Jul-21 14:33N 44°06' E 009°49'0 0.0
2014-Jul-21 13:33N 44°06' E 009°49'0 0.0
2014-Jul-21 12:33N 44°06' E 009°49'0 0.0
2014-Jul-21 11:33N 44°06' E 009°49'0 0.0
2014-Jul-21 10:33N 44°06' E 009°49'0 0.0
2014-Jul-21 09:33N 44°06' E 009°49'0 0.0
2014-Jul-21 08:33N 44°06' E 009°49'0 0.0
2014-Jul-21 07:33N 44°06' E 009°49'0 0.0
2014-Jul-21 06:33N 44°06' E 009°49'0 0.0
2014-Jul-21 05:33N 44°06' E 009°49'0 0.0
2014-Jul-21 04:33N 44°06' E 009°49'0 0.0
2014-Jul-21 03:33N 44°06' E 009°49'0 0.0
2014-Jul-21 02:33N 44°06' E 009°49'0 0.0
2014-Jul-21 01:33N 44°06' E 009°49'0 0.0
2014-Jul-21 00:33N 44°06' E 009°49'0 0.0
2014-Jul-20 23:33N 44°06' E 009°49'0 0.0
2014-Jul-20 22:33N 44°06' E 009°49'0 0.0
2014-Jul-20 21:33N 44°06' E 009°49'0 0.0
2014-Jul-20 20:33N 44°06' E 009°49'0 0.0
2014-Jul-20 19:33N 44°06' E 009°49'0 0.0
2014-Jul-20 18:33N 44°06' E 009°49'0 0.0
2014-Jul-20 17:33N 44°06' E 009°49'0 0.0
2014-Jul-20 16:33N 44°06' E 009°49'0 0.0
2014-Jul-20 15:33N 44°06' E 009°49'0 0.0
2014-Jul-20 14:33N 44°06' E 009°49'0 0.0
2014-Jul-20 13:33N 44°06' E 009°49'0 0.0
2014-Jul-20 12:33N 44°06' E 009°49'0 0.0
2014-Jul-20 11:33N 44°06' E 009°49'0 0.0
2014-Jul-20 10:33N 44°06' E 009°49'0 0.0
2014-Jul-20 09:33N 44°06' E 009°49'0 0.0
2014-Jul-20 08:33N 44°06' E 009°49'0 0.0
2014-Jul-20 07:33N 44°06' E 009°49'0 0.0
2014-Jul-20 06:33N 44°06' E 009°49'0 0.0
2014-Jul-20 05:33N 44°06' E 009°49'0 0.0
2014-Jul-20 04:33N 44°06' E 009°49'0 0.0
2014-Jul-20 03:33N 44°06' E 009°49'0 0.0
2014-Jul-20 02:33N 44°06' E 009°49'0 0.0
2014-Jul-20 01:33N 44°06' E 009°49'0 0.0
2014-Jul-20 00:33N 44°06' E 009°49'0 0.0
2014-Jul-19 23:33N 44°06' E 009°49'0 0.0
2014-Jul-19 22:33N 44°06' E 009°49'0 0.0
2014-Jul-19 21:34N 44°06' E 009°49'0 0.0
2014-Jul-19 20:33N 44°06' E 009°49'0 0.0
2014-Jul-19 19:33N 44°06' E 009°49'0 0.0
2014-Jul-19 18:33N 44°06' E 009°49'0 0.0
2014-Jul-19 17:33N 44°06' E 009°49'0 0.0
2014-Jul-19 16:33N 44°06' E 009°49'0 0.0
2014-Jul-19 15:33N 44°06' E 009°49'0 0.0
2014-Jul-19 14:33N 44°06' E 009°49'0 0.0
2014-Jul-19 13:34N 44°06' E 009°49'0 0.0
2014-Jul-19 12:34N 44°06' E 009°49'0 0.0
2014-Jul-19 11:33N 44°06' E 009°49'0 0.0
2014-Jul-19 10:33N 44°06' E 009°49'0 0.0
2014-Jul-19 09:33N 44°06' E 009°49'0 0.0
2014-Jul-19 08:33N 44°06' E 009°49'0 0.0
2014-Jul-19 07:33N 44°06' E 009°49'0 0.0
2014-Jul-19 06:33N 44°06' E 009°49'0 0.1
2014-Jul-19 05:32N 44°06' E 009°49'0 0.0
2014-Jul-19 04:32N 44°06' E 009°49'0 0.0
2014-Jul-19 03:32N 44°06' E 009°49'0 0.0
2014-Jul-19 02:31N 44°06' E 009°49'0 0.0
2014-Jul-19 01:31N 44°06' E 009°49'0 0.0
2014-Jul-19 00:33N 44°06' E 009°49'0 0.0
2014-Jul-18 23:30N 44°06' E 009°49'0 0.0
2014-Jul-18 22:32N 44°06' E 009°49'0 0.0
2014-Jul-18 21:32N 44°06' E 009°49'0 0.0
2014-Jul-18 20:32N 44°06' E 009°49'0 0.0
2014-Jul-18 19:31N 44°06' E 009°49'0 0.0
2014-Jul-18 18:28N 44°06' E 009°49'0 0.0
2014-Jul-18 17:33N 44°06' E 009°49'0 0.0
2014-Jul-18 16:33N 44°06' E 009°49'0 0.0
2014-Jul-18 15:32N 44°06' E 009°49'0 0.0
2014-Jul-18 14:32N 44°06' E 009°49'0 0.0
2014-Jul-18 13:31N 44°06' E 009°49'0 0.0
2014-Jul-18 12:31N 44°06' E 009°49'0 0.0
2014-Jul-18 11:28N 44°06' E 009°49'0 0.0
2014-Jul-18 10:30N 44°06' E 009°49'0 0.0
2014-Jul-18 09:33N 44°06' E 009°49'0 0.0
2014-Jul-18 08:32N 44°06' E 009°49'0 0.0
2014-Jul-18 07:32N 44°06' E 009°49'0 0.0
2014-Jul-18 06:31N 44°06' E 009°49'0 0.0
2014-Jul-18 05:31N 44°06' E 009°49'0 0.0
2014-Jul-18 04:31N 44°06' E 009°49'0 0.0
2014-Jul-18 03:33N 44°06' E 009°49'0 0.0
2014-Jul-18 02:33N 44°06' E 009°49'0 0.0
2014-Jul-18 01:32N 44°06' E 009°49'0 0.0
2014-Jul-18 00:32N 44°06' E 009°49'0 0.0
2014-Jul-17 23:28N 44°06' E 009°49'0 0.0
2014-Jul-17 22:28N 44°06' E 009°49'0 0.0
2014-Jul-17 21:31N 44°06' E 009°49'0 0.0
2014-Jul-17 20:33N 44°06' E 009°49'0 0.0
2014-Jul-17 19:33N 44°06' E 009°49'0 0.0
2014-Jul-17 18:32N 44°06' E 009°49'0 0.0
2014-Jul-17 17:32N 44°06' E 009°49'0 0.0
2014-Jul-17 16:28N 44°06' E 009°49'0 0.0
2014-Jul-17 15:31N 44°06' E 009°49'0 0.0
2014-Jul-17 14:34N 44°06' E 009°49'0 0.0
2014-Jul-17 13:33N 44°06' E 009°49'0 0.0
2014-Jul-17 12:33N 44°06' E 009°49'0 0.0
2014-Jul-17 11:32N 44°06' E 009°49'0 0.0
2014-Jul-17 10:32N 44°06' E 009°49'0 0.0
2014-Jul-17 09:31N 44°06' E 009°49'0 0.0
2014-Jul-17 08:31N 44°06' E 009°49'0 0.0
2014-Jul-17 07:33N 44°06' E 009°49'0 0.0
2014-Jul-17 06:33N 44°06' E 009°49'0 0.0
2014-Jul-17 05:33N 44°06' E 009°49'0 0.0
2014-Jul-17 04:32N 44°06' E 009°49'0 0.0
2014-Jul-17 03:32N 44°06' E 009°49'0 0.0
2014-Jul-17 02:31N 44°06' E 009°49'0 0.0
2014-Jul-17 01:31N 44°06' E 009°49'0 0.0
2014-Jul-17 00:33N 44°06' E 009°49'0 0.0
2014-Jul-16 23:33N 44°06' E 009°49'0 0.0
2014-Jul-16 22:33N 44°06' E 009°49'0 0.0
2014-Jul-16 21:32N 44°06' E 009°49'0 0.0
2014-Jul-16 20:29N 44°06' E 009°49'0 0.0
2014-Jul-16 19:28N 44°06' E 009°49'0 0.0
2014-Jul-16 18:31N 44°06' E 009°49'1 0.6
2014-Jul-16 17:34N 44°05' E 009°50'1 1.3
2014-Jul-16 16:33N 44°06' E 009°52'4 4.1
2014-Jul-16 15:33N 44°02' E 009°52'8 7.9
2014-Jul-16 14:33N 43°54' E 009°49'0 0.5
2014-Jul-16 13:33N 43°54' E 009°49'2 1.6
2014-Jul-16 12:33N 43°54' E 009°47'0 0.2
2014-Jul-16 11:33N 43°54' E 009°47'1 1.4
2014-Jul-16 10:33N 43°54' E 009°49'1 0.5
2014-Jul-16 09:33N 43°54' E 009°49'0 0.0
2014-Jul-16 08:34N 43°54' E 009°49'0 0.4
2014-Jul-16 07:34N 43°54' E 009°49'9 8.7
2014-Jul-16 06:33N 44°03' E 009°52'4 3.5
2014-Jul-16 05:34N 44°06' E 009°49'0 0.0
2014-Jul-16 04:33N 44°06' E 009°49'0 0.0
2014-Jul-16 03:33N 44°06' E 009°49'0 0.0
2014-Jul-16 02:34N 44°06' E 009°49'0 0.0
2014-Jul-16 01:33N 44°06' E 009°49'0 0.0
2014-Jul-16 00:34N 44°06' E 009°49'0 0.0
2014-Jul-15 23:33N 44°06' E 009°49'0 0.0
2014-Jul-15 22:33N 44°06' E 009°49'0 0.0
2014-Jul-15 21:33N 44°06' E 009°49'0 0.0
2014-Jul-15 20:34N 44°06' E 009°49'0 0.0
2014-Jul-15 19:33N 44°06' E 009°49'0 0.0
2014-Jul-15 18:33N 44°06' E 009°49'0 0.0
2014-Jul-15 17:33N 44°06' E 009°49'0 0.0
2014-Jul-15 16:33N 44°06' E 009°49'0 0.1
2014-Jul-15 15:34N 44°06' E 009°49'0 0.0
2014-Jul-15 14:33N 44°06' E 009°49'0 0.0
2014-Jul-15 13:34N 44°06' E 009°49'0 0.0
2014-Jul-15 12:33N 44°06' E 009°49'0 0.0
2014-Jul-15 11:33N 44°06' E 009°49'0 0.0
2014-Jul-15 10:33N 44°06' E 009°49'1 1.2
2014-Jul-15 09:33N 44°05' E 009°51'1 0.6
2014-Jul-15 08:34N 44°06' E 009°52'0 0.0
2014-Jul-15 07:33N 44°06' E 009°52'1 0.9
2014-Jul-15 06:33N 44°05' E 009°51'1 1.0
2014-Jul-15 05:32N 44°06' E 009°49'0 0.0
2014-Jul-15 04:31N 44°06' E 009°49'0 0.0
2014-Jul-15 03:31N 44°06' E 009°49'0 0.0
2014-Jul-15 02:31N 44°06' E 009°49'0 0.0
2014-Jul-15 01:33N 44°06' E 009°49'0 0.0
2014-Jul-15 00:33N 44°06' E 009°49'0 0.0
2014-Jul-14 23:32N 44°06' E 009°49'0 0.0
2014-Jul-14 22:32N 44°06' E 009°49'0 0.0
2014-Jul-14 21:31N 44°06' E 009°49'0 0.0
2014-Jul-14 20:31N 44°06' E 009°49'0 0.0
2014-Jul-14 19:33N 44°06' E 009°49'0 0.0
2014-Jul-14 18:33N 44°06' E 009°49'0 0.0
2014-Jul-14 17:33N 44°06' E 009°49'0 0.0
2014-Jul-14 16:32N 44°06' E 009°49'0 0.0
2014-Jul-14 05:09N 44°06' E 009°49'0 0.0
2014-Jul-14 04:33N 44°06' E 009°49'0 0.0
2014-Jul-14 03:33N 44°06' E 009°49'0 0.0
2014-Jul-14 02:29N 44°06' E 009°49'0 0.0
2014-Jul-14 01:32N 44°06' E 009°49'0 0.0
2014-Jul-14 00:31N 44°06' E 009°49'0 0.0
2014-Jul-13 23:31N 44°06' E 009°49'0 0.0
2014-Jul-13 22:33N 44°06' E 009°49'  

Dump ship's entire track history